Time;durP1;ratioP1;P1;durP2;ratioP2;P2;SDS_P1;SDS_P2;PMS_P1;PMS_P2;Temp;Humidity;BMP_temperature;BMP_pressure;BME280_temperature;BME280_humidity;BME280_pressure;Samples;Min_cycle;Max_cycle;Signal;HPM_P1;HPM_P2
2022/09/02 00:01:53;;;;;;;1.80;0.85;;;;;;;14.39;53.16;100647.08;1752878;81;21079;-61
2022/09/02 00:04:24;;;;;;;2.00;1.12;;;;;;;14.35;53.30;100652.19;1768730;80;21498;-63
2022/09/02 00:06:53;;;;;;;4.22;1.10;;;;;;;14.33;53.49;100652.08;1812103;79;21384;-62
2022/09/02 00:09:24;;;;;;;4.00;1.22;;;;;;;14.29;53.75;100646.97;1802890;79;20970;-61
2022/09/02 00:11:54;;;;;;;2.20;0.95;;;;;;;14.23;53.94;100646.98;1761076;81;21038;-63
2022/09/02 00:14:28;;;;;;;2.20;0.80;;;;;;;14.19;54.09;100656.22;1797137;79;21068;-63
2022/09/02 00:16:59;;;;;;;1.47;0.95;;;;;;;14.18;54.27;100658.66;1764352;80;21086;-63
2022/09/02 00:19:29;;;;;;;2.77;1.02;;;;;;;14.16;54.38;100660.78;1766301;80;21048;-62
2022/09/02 00:21:59;;;;;;;3.55;1.00;;;;;;;14.15;54.39;100654.95;1758181;80;21049;-63
2022/09/02 00:24:29;;;;;;;1.70;0.88;;;;;;;14.12;54.44;100659.52;1762805;80;21986;-62
2022/09/02 00:26:58;;;;;;;5.10;1.10;;;;;;;14.08;54.57;100670.66;1760129;81;21095;-61
2022/09/02 00:29:28;;;;;;;1.77;0.95;;;;;;;13.99;54.77;100662.30;1746358;82;21099;-63
2022/09/02 00:31:58;;;;;;;1.95;0.95;;;;;;;13.92;55.04;100666.96;1708344;84;20985;-62
2022/09/02 00:34:29;;;;;;;2.47;1.22;;;;;;;13.89;55.27;100672.90;1746328;82;21070;-62
2022/09/02 00:36:58;;;;;;;2.77;1.52;;;;;;;13.86;55.44;100674.17;1762235;80;21090;-61
2022/09/02 00:39:28;;;;;;;3.00;1.52;;;;;;;13.81;55.63;100676.72;1759855;81;21014;-61
2022/09/02 00:41:57;;;;;;;3.08;1.60;;;;;;;13.77;55.78;100669.94;1758601;81;21417;-62
2022/09/02 00:44:27;;;;;;;2.85;1.40;;;;;;;13.74;55.92;100672.27;1767661;81;20995;-62
2022/09/02 00:46:57;;;;;;;2.95;1.50;;;;;;;13.71;56.07;100671.31;1758026;80;21012;-63
2022/09/02 00:49:31;;;;;;;2.83;1.55;;;;;;;13.68;56.22;100678.63;1770861;81;21098;-62
2022/09/02 00:52:19;;;;;;;4.22;1.70;;;;;;;13.63;56.34;100680.59;1766323;80;21012;-62
2022/09/02 00:54:53;;;;;;;4.30;1.80;;;;;;;13.61;56.50;100685.47;1761773;80;21441;-61
2022/09/02 00:57:26;;;;;;;4.78;2.20;;;;;;;13.57;56.72;100689.70;1764019;80;21022;-62
2022/09/02 01:00:07;;;;;;;8.15;2.35;;;;;;;13.53;56.89;100693.41;1758195;80;20984;-63
2022/09/02 01:02:39;;;;;;;5.67;2.25;;;;;;;13.47;57.12;100701.13;1746343;81;21030;-63
2022/09/02 01:05:11;;;;;;;4.33;2.60;;;;;;;13.43;57.32;100699.00;1753261;80;21075;-62
2022/09/02 01:07:42;;;;;;;7.80;2.83;;;;;;;13.39;57.50;100698.57;1753660;80;21046;-62
2022/09/02 01:10:15;;;;;;;5.92;3.02;;;;;;;13.37;57.66;100699.84;1758558;80;21062;-64
2022/09/02 01:12:47;;;;;;;6.85;3.40;;;;;;;13.36;57.79;100702.27;1759256;80;20984;-62
2022/09/02 01:15:16;;;;;;;8.73;3.00;;;;;;;13.36;57.93;100702.27;1764509;81;21102;-62
2022/09/02 01:17:49;;;;;;;7.25;3.00;;;;;;;13.35;57.98;100705.55;1742933;81;21059;-62
2022/09/02 01:20:24;;;;;;;8.33;3.62;;;;;;;13.30;58.13;100706.17;1719933;82;21246;-62
2022/09/02 01:22:56;;;;;;;8.93;3.45;;;;;;;13.30;58.28;100711.68;1763159;80;21007;-61
2022/09/02 01:25:31;;;;;;;9.53;4.00;;;;;;;13.31;58.29;100712.53;1760416;81;21067;-62
2022/09/02 01:28:04;;;;;;;9.60;3.65;;;;;;;13.24;58.46;100711.66;1725158;83;21627;-62
2022/09/02 01:30:37;;;;;;;7.97;3.95;;;;;;;13.13;58.78;100713.61;1713723;83;21034;-61
2022/09/02 01:33:07;;;;;;;8.73;3.75;;;;;;;13.04;59.06;100717.07;1721102;82;21035;-63
2022/09/02 01:35:37;;;;;;;6.70;3.83;;;;;;;13.03;59.16;100715.37;1734195;82;21536;-63
2022/09/02 01:38:07;;;;;;;8.85;4.40;;;;;;;13.05;59.21;100720.67;1719887;82;21011;-61
2022/09/02 01:40:39;;;;;;;9.18;3.98;;;;;;;13.03;59.19;100722.78;1695403;83;21063;-60
2022/09/02 01:43:18;;;;;;;9.00;4.00;;;;;;;12.99;59.30;100719.03;1778479;80;21090;-61
2022/09/02 01:45:52;;;;;;;10.95;3.95;;;;;;;12.99;59.36;100723.69;1765601;81;21039;-62
2022/09/02 01:48:23;;;;;;;6.05;3.42;;;;;;;12.93;59.44;100727.26;1723860;83;21415;-62
2022/09/02 01:50:57;;;;;;;8.23;3.55;;;;;;;12.87;59.63;100727.55;1709625;83;21455;-63
2022/09/02 01:53:27;;;;;;;8.00;3.80;;;;;;;12.86;59.68;100731.87;1710697;83;21008;-63
2022/09/02 01:55:57;;;;;;;10.90;4.28;;;;;;;12.85;59.69;100730.19;1717050;82;21074;-63
2022/09/02 01:58:26;;;;;;;7.47;3.77;;;;;;;12.88;59.66;100732.53;1709174;83;21051;-62
2022/09/02 02:00:56;;;;;;;8.10;4.00;;;;;;;12.92;59.57;100737.41;1777875;80;21070;-61
2022/09/02 02:03:25;;;;;;;6.75;3.47;;;;;;;12.94;59.45;100737.20;1764184;81;21027;-63
2022/09/02 02:05:59;;;;;;;9.20;3.60;;;;;;;12.91;59.42;100741.22;1720035;83;21050;-63
2022/09/02 02:08:32;;;;;;;9.35;3.40;;;;;;;12.87;59.52;100744.05;1773153;80;21027;-61
2022/09/02 02:11:03;;;;;;;8.00;3.80;;;;;;;12.85;59.53;100741.19;1777388;80;21075;-63
2022/09/02 02:13:34;;;;;;;6.65;3.30;;;;;;;12.85;59.59;100747.53;1765392;81;21063;-63
2022/09/02 02:16:04;;;;;;;5.92;3.05;;;;;;;12.80;59.72;100745.92;1726667;83;21067;-62
2022/09/02 02:18:34;;;;;;;8.40;3.17;;;;;;;12.71;59.94;100745.77;1737827;81;21031;-62
2022/09/02 02:21:04;;;;;;;6.20;3.30;;;;;;;12.62;60.18;100746.98;1728337;82;21140;-63
2022/09/02 02:23:35;;;;;;;7.60;3.20;;;;;;;12.58;60.40;100752.56;1724498;82;21020;-63
2022/09/02 02:26:07;;;;;;;7.83;3.50;;;;;;;12.58;60.55;100758.06;1680828;84;20991;-63
2022/09/02 02:28:38;;;;;;;11.15;4.50;;;;;;;12.58;60.61;100756.17;1706953;84;20962;-63
2022/09/02 02:31:09;;;;;;;9.80;4.40;;;;;;;12.57;60.63;100752.24;1724155;82;21023;-63
2022/09/02 02:33:39;;;;;;;9.73;4.10;;;;;;;12.53;60.71;100753.70;1706576;84;21075;-61
2022/09/02 02:36:10;;;;;;;8.75;3.67;;;;;;;12.49;60.79;100755.16;1718909;83;21066;-63
2022/09/02 02:38:40;;;;;;;8.20;4.12;;;;;;;12.45;60.94;100751.11;1736462;82;21458;-62
2022/09/02 02:41:09;;;;;;;13.13;4.50;;;;;;;12.46;61.00;100750.06;1729935;82;21470;-63
2022/09/02 02:43:39;;;;;;;21.00;5.62;;;;;;;12.47;60.97;100749.86;1742272;82;21027;-62
2022/09/02 02:46:09;;;;;;;9.83;4.17;;;;;;;12.45;60.95;100749.73;1779727;80;21034;-61
2022/09/02 02:48:39;;;;;;;9.55;4.10;;;;;;;12.41;61.06;100756.69;1753956;80;21006;-63
2022/09/02 02:51:08;;;;;;;10.72;4.80;;;;;;;12.41;61.14;100750.66;1783998;80;21037;-62
2022/09/02 02:53:37;;;;;;;8.08;4.30;;;;;;;12.42;61.12;100755.63;1783059;80;20981;-62
2022/09/02 02:56:06;;;;;;;6.28;3.92;;;;;;;12.43;61.15;100761.45;1782217;80;21030;-62
2022/09/02 02:58:36;;;;;;;6.87;3.80;;;;;;;12.46;61.15;100759.67;1779319;80;21386;-63
2022/09/02 03:01:06;;;;;;;9.95;3.47;;;;;;;12.48;61.02;100763.92;1788536;80;21430;-63
2022/09/02 03:03:36;;;;;;;6.78;3.50;;;;;;;12.52;60.91;100763.84;1780136;80;21371;-61
2022/09/02 03:06:06;;;;;;;6.28;3.50;;;;;;;12.53;60.90;100767.44;1781470;80;21038;-62
2022/09/02 03:08:36;;;;;;;7.45;3.42;;;;;;;12.54;60.88;100771.36;1782719;80;21049;-60
2022/09/02 03:11:08;;;;;;;8.38;3.37;;;;;;;12.55;60.81;100772.21;1779424;80;21034;-63
2022/09/02 03:13:41;;;;;;;9.95;4.00;;;;;;;12.52;60.83;100775.36;1759573;80;20978;-62
2022/09/02 03:16:11;;;;;;;7.22;3.50;;;;;;;12.48;60.95;100778.19;1778638;80;21045;-63
2022/09/02 03:18:43;;;;;;;6.95;3.70;;;;;;;12.45;61.04;100779.97;1788602;79;21058;-62
2022/09/02 03:21:14;;;;;;;8.93;3.80;;;;;;;12.37;61.16;100779.59;1811776;79;20975;-63
2022/09/02 03:23:45;;;;;;;5.92;3.70;;;;;;;12.33;61.43;100784.61;1792536;79;21019;-64
2022/09/02 03:26:18;;;;;;;8.35;4.00;;;;;;;12.36;61.48;100788.89;1809932;79;20972;-63
2022/09/02 03:28:49;;;;;;;6.83;3.62;;;;;;;12.36;61.50;100789.73;1816748;79;21465;-61
2022/09/02 03:31:20;;;;;;;8.03;3.95;;;;;;;12.37;61.52;100795.56;1816933;79;20999;-63
2022/09/02 03:33:49;;;;;;;7.50;4.00;;;;;;;12.37;61.54;100796.94;1805096;79;21442;-63
2022/09/02 03:36:29;;;;;;;11.60;4.25;;;;;;;12.32;61.67;100798.55;1810919;79;21110;-63
2022/09/02 03:39:00;;;;;;;10.25;4.40;;;;;;;12.29;61.81;100802.55;1793068;79;20975;-61
2022/09/02 03:41:29;;;;;;;8.48;4.42;;;;;;;12.27;61.94;100807.91;1811396;79;20999;-62
2022/09/02 03:44:00;;;;;;;8.40;4.35;;;;;;;12.24;62.03;100811.06;1817113;79;21038;-63
2022/09/02 03:46:33;;;;;;;9.93;5.10;;;;;;;12.22;62.08;100814.00;1796686;79;21059;-64
2022/09/02 03:49:03;;;;;;;16.40;5.50;;;;;;;12.19;62.15;100816.30;1791714;79;21039;-62
2022/09/02 03:51:33;;;;;;;13.50;6.10;;;;;;;12.16;62.30;100820.30;1811138;79;21313;-62
2022/09/02 03:54:05;;;;;;;17.92;6.85;;;;;;;12.17;62.26;100828.86;1785704;79;21019;-62
2022/09/02 03:56:35;;;;;;;19.23;7.20;;;;;;;12.18;62.23;100833.31;1815190;79;21023;-63
2022/09/02 03:59:06;;;;;;;20.57;8.78;;;;;;;12.19;62.17;100830.88;1812407;79;20999;-63
2022/09/02 04:01:37;;;;;;;25.12;8.35;;;;;;;12.22;62.14;100840.11;1815697;79;20983;-61
2022/09/02 04:04:09;;;;;;;18.75;8.23;;;;;;;12.26;61.96;100841.41;1819374;79;21022;-65
2022/09/02 04:06:39;;;;;;;20.72;8.48;;;;;;;12.28;61.81;100836.56;1816033;79;21062;-63
2022/09/02 04:09:09;;;;;;;20.68;8.68;;;;;;;12.33;61.72;100841.47;1818525;79;21043;-62
2022/09/02 04:11:41;;;;;;;22.40;8.43;;;;;;;12.32;61.66;100843.36;1812517;79;21026;-63
2022/09/02 04:14:12;;;;;;;16.97;8.88;;;;;;;12.30;61.82;100842.71;1813963;79;21458;-65
2022/09/02 04:16:42;;;;;;;23.27;8.98;;;;;;;12.26;62.01;100842.78;1814460;79;21034;-62
2022/09/02 04:19:12;;;;;;;20.92;9.70;;;;;;;12.26;62.09;100841.41;1810620;79;21035;-61
2022/09/02 04:21:42;;;;;;;22.00;10.00;;;;;;;12.30;62.06;100845.45;1811875;79;21435;-62
2022/09/02 04:24:12;;;;;;;22.55;9.75;;;;;;;12.35;61.95;100858.11;1795762;79;21030;-62
2022/09/02 04:26:44;;;;;;;26.12;10.40;;;;;;;12.40;61.90;100849.80;1808165;79;20987;-62
2022/09/02 04:29:17;;;;;;;28.60;12.10;;;;;;;12.47;61.85;100858.95;1811009;79;20968;-62
2022/09/02 04:31:49;;;;;;;25.60;12.60;;;;;;;12.53;61.74;100855.40;1814164;79;21026;-64
2022/09/02 04:34:19;;;;;;;33.78;15.98;;;;;;;12.61;61.54;100853.87;1810843;79;21039;-62
2022/09/02 04:36:51;;;;;;;42.40;20.57;;;;;;;12.67;61.37;100854.45;1811217;79;21067;-62
2022/09/02 04:39:22;;;;;;;74.70;35.68;;;;;;;12.73;61.16;100860.52;1793776;79;20995;-62
2022/09/02 04:41:54;;;;;;;61.37;30.77;;;;;;;12.84;60.89;100861.87;1815764;79;21031;-63
2022/09/02 04:44:26;;;;;;;55.65;26.85;;;;;;;12.95;60.58;100859.41;1790238;79;21034;-64
2022/09/02 04:46:56;;;;;;;51.58;25.97;;;;;;;13.06;60.25;100859.92;1814332;79;21011;-62
2022/09/02 04:49:30;;;;;;;51.13;25.40;;;;;;;13.15;60.02;100860.92;1791171;79;21427;-62
2022/09/02 04:51:58;;;;;;;54.88;25.92;;;;;;;13.23;59.87;100862.69;1815684;79;21058;-62
2022/09/02 04:54:30;;;;;;;56.98;27.30;;;;;;;13.30;59.77;100858.92;1811025;79;21062;-63
2022/09/02 04:57:01;;;;;;;66.22;33.53;;;;;;;13.37;59.58;100866.36;1819268;79;21031;-62
2022/09/02 04:59:35;;;;;;;86.63;40.55;;;;;;;13.42;59.41;100860.56;1814434;79;21038;-63
2022/09/02 05:02:07;;;;;;;92.40;40.70;;;;;;;13.48;59.17;100863.02;1812541;79;21015;-63
2022/09/02 05:04:38;;;;;;;111.22;50.75;;;;;;;13.56;59.01;100864.22;1817700;79;21528;-63
2022/09/02 05:07:10;;;;;;;105.03;46.15;;;;;;;13.62;58.76;100863.39;1812629;78;21050;-61
2022/09/02 05:09:43;;;;;;;106.70;49.08;;;;;;;13.71;58.51;100868.22;1810583;79;21509;-61
2022/09/02 05:12:14;;;;;;;116.12;52.88;;;;;;;13.78;58.33;100869.09;1814661;79;21078;-63
2022/09/02 05:14:47;;;;;;;120.02;56.83;;;;;;;13.81;58.26;100871.43;1818659;78;21078;-64
2022/09/02 05:17:19;;;;;;;130.65;57.03;;;;;;;13.86;57.96;100868.90;1810244;78;21019;-63
2022/09/02 05:19:49;;;;;;;124.15;60.25;;;;;;;13.93;57.77;100872.52;1808864;79;21019;-61
2022/09/02 05:22:20;;;;;;;113.05;55.70;;;;;;;14.00;57.36;100869.25;1808401;79;21052;-63
2022/09/02 05:24:50;;;;;;;114.70;54.58;;;;;;;14.05;57.15;100861.73;1808500;79;21015;-63
2022/09/02 05:27:20;;;;;;;104.83;51.83;;;;;;;14.11;56.95;100868.63;1809527;79;21039;-62
2022/09/02 05:29:58;;;;;;;98.42;50.58;;;;;;;14.17;56.71;100863.66;1810109;79;21419;-63
2022/09/02 05:32:30;;;;;;;99.60;47.78;;;;;;;14.24;56.45;100871.94;1809169;79;21748;-63
2022/09/02 05:35:04;;;;;;;93.00;44.27;;;;;;;14.27;56.35;100870.14;1808551;78;21071;-63
2022/09/02 05:37:34;;;;;;;105.63;46.25;;;;;;;14.33;56.31;100872.61;1808636;79;20992;-62
2022/09/02 05:40:06;;;;;;;88.17;43.63;;;;;;;14.40;56.25;100873.47;1808848;79;21008;-62
2022/09/02 05:42:38;;;;;;;92.10;44.48;;;;;;;14.47;55.91;100879.34;1808512;79;21023;-64
2022/09/02 05:45:09;;;;;;;87.75;44.23;;;;;;;14.52;55.63;100873.19;1808680;79;21019;-63
2022/09/02 05:47:39;;;;;;;74.15;36.25;;;;;;;14.58;55.43;100881.98;1773532;79;21142;-65
2022/09/02 05:50:10;;;;;;;77.32;37.23;;;;;;;14.65;55.08;100877.85;1809491;79;21455;-64
2022/09/02 05:52:42;;;;;;;64.27;31.10;;;;;;;14.70;54.92;100878.91;1808456;79;20980;-64
2022/09/02 05:55:12;;;;;;;59.00;28.90;;;;;;;14.76;54.60;100878.05;1808681;79;20975;-63
2022/09/02 05:57:44;;;;;;;65.15;31.02;;;;;;;14.81;54.32;100879.64;1809256;79;21034;-63
2022/09/02 06:00:15;;;;;;;43.55;23.15;;;;;;;14.87;54.28;100877.41;1809371;79;21007;-63
2022/09/02 06:02:51;;;;;;;;;;;;;;;14.93;53.82;100878.45;1795152;79;20980;-63
2022/09/02 06:05:23;;;;;;;38.63;20.30;;;;;;;14.98;53.43;100879.23;1808658;79;20177;-63
2022/09/02 06:07:56;;;;;;;47.53;22.30;;;;;;;15.02;53.21;100879.11;1746566;82;21066;-63
2022/09/02 06:10:26;;;;;;;41.77;21.25;;;;;;;15.06;53.27;100881.76;1746829;82;21026;-64
2022/09/02 06:12:56;;;;;;;34.33;15.70;;;;;;;15.10;53.41;100886.63;1707111;84;21082;-64
2022/09/02 06:15:29;;;;;;;29.80;14.80;;;;;;;15.14;53.08;100889.81;1708450;84;21084;-64
2022/09/02 06:18:00;;;;;;;32.45;15.18;;;;;;;15.18;52.76;100885.02;1732528;81;21081;-63
2022/09/02 06:20:31;;;;;;;27.52;12.98;;;;;;;15.22;52.47;100892.34;1715529;83;21034;-64
2022/09/02 06:23:02;;;;;;;29.75;14.40;;;;;;;15.28;52.46;100893.38;1686410;83;21534;-62
2022/09/02 06:25:38;;;;;;;29.07;13.43;;;;;;;15.34;52.34;100896.12;1690996;81;21023;-62
2022/09/02 06:28:09;;;;;;;23.57;12.55;;;;;;;15.40;52.35;100899.93;1733330;81;21049;-64
2022/09/02 06:30:42;;;;;;;32.08;16.02;;;;;;;15.46;52.32;100900.44;1755463;81;21027;-63
2022/09/02 06:33:12;;;;;;;31.10;15.78;;;;;;;15.50;51.70;100898.41;1780597;80;21018;-64
2022/09/02 06:35:45;;;;;;;32.03;15.10;;;;;;;15.55;51.17;100901.89;1784531;80;21055;-65
2022/09/02 06:38:16;;;;;;;33.45;15.13;;;;;;;15.57;50.97;100898.91;1756094;80;21043;-62
2022/09/02 06:40:51;;;;;;;28.75;14.85;;;;;;;15.62;50.97;100901.94;1759957;80;21062;-63
2022/09/02 06:43:22;;;;;;;26.90;13.08;;;;;;;15.66;51.30;100900.43;1765652;80;21018;-65
2022/09/02 06:46:05;;;;;;;25.27;12.73;;;;;;;15.71;50.57;100895.09;1694554;84;20998;-64
2022/09/02 06:48:35;;;;;;;28.67;14.33;;;;;;;15.75;50.17;100904.11;1718874;83;21096;-64
2022/09/02 06:51:07;;;;;;;30.92;12.53;;;;;;;15.80;49.77;100904.83;1759629;81;21243;-63
2022/09/02 06:53:37;;;;;;;17.37;8.75;;;;;;;15.87;49.46;100904.27;1756995;81;21449;-63
2022/09/02 06:56:07;;;;;;;12.07;6.67;;;;;;;15.90;48.88;100903.82;1759863;81;21101;-62
2022/09/02 06:58:39;;;;;;;12.55;6.35;;;;;;;15.95;48.27;100904.55;1737220;81;21081;-64
2022/09/02 07:01:13;;;;;;;19.42;9.43;;;;;;;15.99;47.99;100912.17;1758141;81;21093;-64
2022/09/02 07:06:45;;;;;;;10.88;4.83;;;;;;;16.18;46.72;100918.66;1822001;78;21297;-63
2022/09/02 07:09:21;;;;;;;10.63;4.67;;;;;;;16.42;45.54;100919.80;1822805;78;21007;-63
2022/09/02 07:11:51;;;;;;;9.68;4.20;;;;;;;16.79;44.93;100927.21;1817827;78;21434;-64
2022/09/02 07:14:23;;;;;;;12.80;5.25;;;;;;;17.15;43.59;100921.48;1823833;78;20951;-65
2022/09/02 07:16:56;;;;;;;12.60;5.55;;;;;;;17.36;42.94;100927.97;1803520;78;21026;-65
2022/09/02 07:19:27;;;;;;;11.15;5.12;;;;;;;17.47;42.81;100924.13;1813664;79;21430;-64
2022/09/02 07:21:58;;;;;;;13.18;5.78;;;;;;;17.54;42.27;100923.52;1815785;79;21083;-64
2022/09/02 07:24:28;;;;;;;8.85;4.83;;;;;;;17.50;42.22;100925.05;1809397;79;21048;-63
2022/09/02 07:26:58;;;;;;;18.12;4.97;;;;;;;17.42;42.19;100927.59;1814940;79;21014;-64
2022/09/02 07:29:28;;;;;;;8.55;4.17;;;;;;;17.39;42.07;100927.51;1810460;79;21085;-66
2022/09/02 07:31:58;;;;;;;8.25;4.67;;;;;;;17.41;41.90;100926.74;1799863;79;21008;-64
2022/09/02 07:34:29;;;;;;;12.43;4.62;;;;;;;17.41;41.54;100928.13;1779249;79;21042;-64
2022/09/02 07:36:59;;;;;;;9.15;4.00;;;;;;;17.38;40.94;100927.20;1811390;79;21486;-66
2022/09/02 07:39:31;;;;;;;8.15;4.78;;;;;;;17.37;40.69;100925.51;1814480;78;20992;-64
2022/09/02 07:42:01;;;;;;;8.25;4.28;;;;;;;17.41;40.75;100922.59;1813664;79;21046;-65
2022/09/02 07:44:32;;;;;;;8.50;4.97;;;;;;;17.66;40.88;100923.96;1806379;79;21070;-66
2022/09/02 07:47:04;;;;;;;9.58;4.62;;;;;;;18.04;40.22;100930.61;1812032;79;20988;-64
2022/09/02 07:49:34;;;;;;;10.50;4.80;;;;;;;18.37;39.00;100923.23;1801959;79;20976;-66
2022/09/02 07:52:06;;;;;;;9.48;4.58;;;;;;;18.66;38.92;100915.98;1812502;79;21011;-65
2022/09/02 07:54:39;;;;;;;8.13;4.70;;;;;;;18.98;38.18;100921.25;1812144;79;21292;-65
2022/09/02 07:57:08;;;;;;;8.90;4.92;;;;;;;19.28;37.72;100919.19;1806273;79;21086;-64
2022/09/02 07:59:39;;;;;;;9.48;4.47;;;;;;;19.66;37.19;100919.27;1770916;79;21078;-64
2022/09/02 08:02:13;;;;;;;8.18;4.95;;;;;;;20.06;36.66;100914.24;1814205;79;21014;-65
2022/09/02 08:04:45;;;;;;;11.08;5.00;;;;;;;20.32;35.92;100917.84;1801171;79;21063;-64
2022/09/02 08:07:17;;;;;;;10.72;5.00;;;;;;;20.45;35.85;100913.39;1811008;79;21032;-64
2022/09/02 08:09:47;;;;;;;9.48;4.53;;;;;;;20.70;34.97;100920.51;1817880;79;21026;-64
2022/09/02 08:12:16;;;;;;;6.15;3.62;;;;;;;20.89;34.92;100913.08;1813578;79;21015;-64
2022/09/02 08:14:48;;;;;;;7.80;3.67;;;;;;;21.12;34.45;100918.17;1818211;78;21022;-65
2022/09/02 08:17:17;;;;;;;8.83;4.22;;;;;;;21.38;33.49;100913.85;1809651;79;21099;-65
2022/09/02 08:19:47;;;;;;;6.15;3.98;;;;;;;21.59;32.50;100914.47;1811687;79;21501;-64
2022/09/02 08:22:16;;;;;;;11.63;6.70;;;;;;;21.69;32.31;100906.23;1816853;79;21027;-65
2022/09/02 08:24:46;;;;;;;13.55;7.62;;;;;;;21.72;33.21;100911.30;1816481;79;21034;-64
2022/09/02 08:27:15;;;;;;;12.55;6.70;;;;;;;21.75;33.86;100902.41;1813810;79;21050;-65
2022/09/02 08:29:44;;;;;;;7.28;4.28;;;;;;;21.93;33.67;100904.57;1815327;79;21007;-65
2022/09/02 08:32:14;;;;;;;9.25;3.40;;;;;;;21.94;32.79;100909.89;1814749;79;21193;-65
2022/09/02 08:34:44;;;;;;;7.17;3.17;;;;;;;21.75;31.40;100908.53;1818049;79;20978;-65
2022/09/02 08:37:22;;;;;;;7.28;3.33;;;;;;;21.39;31.86;100915.54;1787864;79;21059;-66
2022/09/02 08:39:54;;;;;;;10.58;2.98;;;;;;;21.12;32.40;100911.20;1812155;79;21095;-65
2022/09/02 08:42:37;;;;;;;4.40;2.45;;;;;;;21.14;32.29;100910.40;1812577;79;21050;-67
2022/09/02 08:45:38;;;;;;;5.28;3.22;;;;;;;21.27;32.20;100917.04;1815213;79;21022;-64
2022/09/02 08:48:20;;;;;;;6.40;3.90;;;;;;;21.41;31.88;100906.37;1815210;79;21380;-66
2022/09/02 08:50:51;;;;;;;9.15;4.30;;;;;;;21.53;32.31;100904.34;1811140;79;21070;-64
2022/09/02 08:53:51;;;;;;;7.92;4.85;;;;;;;21.80;32.41;100896.89;1811529;79;21478;-67
2022/09/02 08:56:20;;;;;;;12.23;5.05;;;;;;;22.00;32.13;100899.63;1807683;79;21043;-65
2022/09/02 08:58:55;;;;;;;9.48;4.70;;;;;;;21.84;31.85;100906.42;1814479;79;21063;-66
2022/09/02 09:01:47;;;;;;;7.03;4.30;;;;;;;21.74;31.99;100902.66;1809839;79;20984;-64
2022/09/02 09:04:46;;;;;;;7.85;4.03;;;;;;;21.64;32.03;100901.98;1799303;79;21026;-65
2022/09/02 09:07:28;;;;;;;6.72;3.37;;;;;;;21.45;32.44;100904.75;1795944;79;20983;-64
2022/09/02 09:10:37;;;;;;;12.40;3.80;;;;;;;21.10;32.15;100899.47;1791944;79;21015;-65
2022/09/02 09:13:38;;;;;;;8.60;3.30;;;;;;;20.88;32.79;100899.41;1813262;79;21018;-66
2022/09/02 09:16:31;;;;;;;6.72;3.15;;;;;;;20.81;32.83;100894.55;1815478;79;21139;-66
2022/09/02 09:19:16;;;;;;;5.28;3.00;;;;;;;20.84;32.92;100903.80;1795636;79;21087;-64
2022/09/02 09:21:46;;;;;;;8.23;3.40;;;;;;;20.81;32.81;100894.55;1776373;80;21050;-65
2022/09/02 09:24:29;;;;;;;4.90;2.47;;;;;;;20.64;33.02;100895.06;1765205;80;20995;-65
2022/09/02 09:26:58;;;;;;;5.85;2.70;;;;;;;20.47;32.50;100894.50;1719984;82;21023;-66
2022/09/02 09:29:31;;;;;;;5.58;2.80;;;;;;;20.39;32.57;100894.91;1710776;83;21137;-65
2022/09/02 09:32:01;;;;;;;4.30;2.45;;;;;;;20.36;32.48;100891.75;1721343;82;21031;-66
2022/09/02 09:34:55;;;;;;;5.15;2.90;;;;;;;20.33;32.37;100893.64;1727852;83;21071;-65
2022/09/02 09:37:34;;;;;;;4.20;2.42;;;;;;;20.28;32.57;100897.72;1754272;81;21039;-65
2022/09/02 09:40:24;;;;;;;4.25;2.00;;;;;;;20.31;32.11;100898.06;1720674;82;21116;-65
2022/09/02 09:43:09;;;;;;;6.22;2.90;;;;;;;20.36;31.87;100890.36;1715021;83;21051;-65
2022/09/02 09:45:47;;;;;;;7.67;2.58;;;;;;;20.36;31.51;100886.19;1711272;83;21011;-64
2022/09/02 09:48:28;;;;;;;5.42;2.30;;;;;;;20.35;31.51;100888.13;1709257;83;21545;-65
2022/09/02 09:51:00;;;;;;;6.22;2.85;;;;;;;20.40;31.19;100899.92;1731849;81;21481;-64
2022/09/02 09:53:32;;;;;;;3.72;2.65;;;;;;;20.36;31.23;100899.55;1712258;83;21076;-66
2022/09/02 09:56:05;;;;;;;4.53;2.60;;;;;;;20.35;31.61;100895.63;1729099;82;21007;-64
2022/09/02 09:58:45;;;;;;;4.92;2.60;;;;;;;20.38;31.19;100889.56;1731472;83;21031;-66
2022/09/02 10:01:23;;;;;;;4.42;2.60;;;;;;;20.38;30.84;100895.97;1709101;83;21099;-66
2022/09/02 10:04:00;;;;;;;3.40;2.33;;;;;;;20.38;30.50;100891.80;1775411;80;21014;-66
2022/09/02 10:06:37;;;;;;;8.68;3.00;;;;;;;20.38;30.36;100891.80;1774644;80;20988;-64
2022/09/02 10:09:24;;;;;;;6.50;3.02;;;;;;;20.39;31.42;100892.13;1765307;81;21063;-67
2022/09/02 10:12:04;;;;;;;4.17;2.50;;;;;;;20.45;31.03;100882.77;1720054;83;21012;-65
2022/09/02 10:14:46;;;;;;;4.95;2.83;;;;;;;20.48;31.03;100878.09;1719477;83;21024;-65
2022/09/02 10:17:33;;;;;;;6.83;3.20;;;;;;;20.43;31.40;100887.74;1759060;80;21035;-64
2022/09/02 10:20:19;;;;;;;5.95;2.80;;;;;;;20.42;31.26;100887.45;1784398;79;21019;-66
2022/09/02 10:23:21;;;;;;;8.78;3.20;;;;;;;20.46;31.47;100897.53;1811405;79;21070;-66
2022/09/02 10:26:07;;;;;;;7.55;2.98;;;;;;;20.47;30.63;100894.50;1812069;79;21074;-66
2022/09/02 10:28:51;;;;;;;5.70;2.62;;;;;;;20.43;30.16;100888.30;1814414;79;21047;-66
2022/09/02 10:31:50;;;;;;;9.60;3.08;;;;;;;20.36;30.23;100881.45;1813943;79;21007;-65
2022/09/02 10:34:57;;;;;;;;;;;;;;;20.23;30.45;100877.60;1806691;79;21035;-66
2022/09/02 10:37:55;;;;;;;6.72;3.35;;;;;;;20.16;30.42;100878.30;1811620;79;20161;-67
2022/09/02 10:40:33;;;;;;;6.05;3.27;;;;;;;20.13;30.59;100877.37;1795633;79;21396;-68
2022/09/02 10:43:07;;;;;;;7.85;3.45;;;;;;;20.13;30.40;100876.83;1811349;79;21442;-67
2022/09/02 10:45:51;;;;;;;7.55;3.60;;;;;;;20.09;30.84;100885.38;1810650;79;20988;-65
2022/09/02 10:48:39;;;;;;;7.00;3.35;;;;;;;20.13;30.97;100883.78;1813216;79;21461;-66
2022/09/02 10:51:46;;;;;;;6.12;3.37;;;;;;;20.15;30.85;100883.53;1809409;79;20979;-65
2022/09/02 10:54:46;;;;;;;5.25;3.35;;;;;;;20.15;30.81;100887.71;1810900;79;21055;-65
2022/09/02 10:57:42;;;;;;;9.30;3.85;;;;;;;20.07;30.97;100878.38;1810972;79;21392;-65
2022/09/02 11:00:19;;;;;;;6.45;4.20;;;;;;;20.03;31.07;100882.20;1814111;78;21428;-65
2022/09/02 11:03:11;;;;;;;7.25;4.28;;;;;;;20.07;31.09;100877.83;1789658;79;21066;-65
2022/09/02 11:05:55;;;;;;;8.95;4.58;;;;;;;20.12;30.87;100872.91;1789227;79;21001;-65
2022/09/02 11:08:50;;;;;;;9.63;4.53;;;;;;;20.15;31.14;100877.42;1792152;79;21467;-64
2022/09/02 11:11:39;;;;;;;6.97;4.28;;;;;;;20.24;30.93;100876.50;1799533;79;21010;-65
2022/09/02 11:14:17;;;;;;;8.95;4.80;;;;;;;20.21;30.51;100867.27;1810594;79;21473;-66
2022/09/02 11:17:08;;;;;;;11.05;4.40;;;;;;;20.19;30.63;100867.52;1810509;79;21493;-65
2022/09/02 11:19:50;;;;;;;9.08;4.78;;;;;;;20.23;31.43;100872.88;1813105;78;21512;-65
2022/09/02 11:22:34;;;;;;;8.90;5.05;;;;;;;20.32;31.22;100881.66;1809005;79;21042;-65
2022/09/02 11:25:17;;;;;;;8.93;4.95;;;;;;;20.40;30.99;100880.44;1758082;80;21008;-66
2022/09/02 11:27:56;;;;;;;11.15;5.00;;;;;;;20.47;30.59;100879.19;1764501;81;20986;-62
2022/09/02 11:30:45;;;;;;;8.78;4.90;;;;;;;20.50;30.27;100877.29;1756280;81;21099;-66
2022/09/02 11:33:45;;;;;;;9.33;4.85;;;;;;;20.47;30.37;100876.41;1756497;81;21019;-67
2022/09/02 11:36:16;;;;;;;8.90;5.03;;;;;;;20.50;30.28;100876.45;1746801;81;21019;-66
2022/09/02 11:39:03;;;;;;;10.25;5.22;;;;;;;20.47;29.88;100869.98;1754755;81;21090;-66
2022/09/02 11:41:57;;;;;;;16.82;7.37;;;;;;;20.46;30.36;100869.70;1754277;81;21038;-66
2022/09/02 11:44:33;;;;;;;11.75;6.30;;;;;;;20.54;30.29;100872.91;1746588;81;21075;-65
2022/09/02 11:47:35;;;;;;;14.55;7.25;;;;;;;20.63;29.78;100874.73;1756611;80;21027;-63
2022/09/02 11:50:18;;;;;;;10.93;7.05;;;;;;;20.67;29.96;100875.06;1758985;81;21052;-66
2022/09/02 11:53:13;;;;;;;11.15;6.60;;;;;;;20.68;30.00;100869.23;1754976;81;21499;-65
2022/09/02 11:56:00;;;;;;;12.05;7.03;;;;;;;20.72;29.56;100875.15;1755217;81;21016;-66
2022/09/02 11:58:33;;;;;;;11.12;5.45;;;;;;;20.71;29.84;100878.48;1745633;81;21048;-64